createdAt,value
2019-02-15T00:04:51.044Z,91
2019-02-15T00:10:18.852Z,91
2019-02-15T00:15:46.649Z,91
2019-02-15T00:21:14.423Z,91
2019-02-15T00:26:43.169Z,91
2019-02-15T00:32:10.926Z,91
2019-02-15T00:37:39.731Z,90
2019-02-15T00:43:07.477Z,90
2019-02-15T00:48:40.551Z,90
2019-02-15T00:54:03.858Z,90
2019-02-15T00:59:32.580Z,90
2019-02-15T01:05:01.303Z,90
2019-02-15T01:10:29.905Z,90
2019-02-15T01:15:57.615Z,90
2019-02-15T01:21:25.612Z,90
2019-02-15T01:26:54.020Z,90
2019-02-15T01:32:21.632Z,90
2019-02-15T01:37:50.029Z,90
2019-02-15T01:43:16.969Z,90
2019-02-15T01:48:45.609Z,89
2019-02-15T01:54:13.324Z,89
2019-02-15T01:59:41.033Z,89
2019-02-15T02:05:09.554Z,89
2019-02-15T02:10:37.149Z,89
2019-02-15T02:16:04.792Z,89
2019-02-15T02:21:32.632Z,89
2019-02-15T02:26:59.966Z,89
2019-02-15T02:32:28.793Z,89
2019-02-15T02:37:56.186Z,89
2019-02-15T02:43:24.746Z,89
2019-02-15T02:48:52.459Z,88
2019-02-15T02:54:20.780Z,89
2019-02-15T02:59:47.554Z,89
2019-02-15T03:05:15.139Z,88
2019-02-15T03:10:43.770Z,88
2019-02-15T03:16:12.380Z,88
2019-02-15T03:21:39.903Z,88
2019-02-15T03:27:07.462Z,88
2019-02-15T03:32:36.039Z,88
2019-02-15T03:38:04.582Z,88
2019-02-15T03:43:32.250Z,88
2019-02-15T03:48:59.760Z,88
2019-02-15T03:54:27.476Z,88
2019-02-15T03:59:54.901Z,88
2019-02-15T04:05:23.625Z,88
2019-02-15T04:10:52.037Z,88
2019-02-15T04:21:47.241Z,88
2019-02-15T04:27:14.836Z,87
2019-02-15T04:32:43.402Z,87
2019-02-15T04:38:12.099Z,87
2019-02-15T04:43:39.563Z,87
2019-02-15T04:49:07.064Z,88
2019-02-15T04:54:35.653Z,87
2019-02-15T05:00:04.227Z,87
2019-02-15T05:05:31.788Z,87
2019-02-15T05:11:04.839Z,87
2019-02-15T05:21:56.465Z,87
2019-02-15T05:27:25.058Z,87
2019-02-15T05:32:53.595Z,87
2019-02-15T05:38:22.251Z,87
2019-02-15T05:43:49.801Z,87
2019-02-15T05:49:17.274Z,87
2019-02-15T05:54:45.852Z,87
2019-02-15T06:00:13.404Z,87
2019-02-15T06:05:41.000Z,87
2019-02-15T06:11:09.500Z,86
2019-02-15T06:16:37.237Z,86
2019-02-15T06:22:05.555Z,86
2019-02-15T06:27:34.117Z,86
2019-02-15T06:33:02.688Z,87
2019-02-15T06:38:34.697Z,87
2019-02-15T06:43:58.754Z,86
2019-02-15T06:49:27.275Z,86
2019-02-15T06:54:55.864Z,86
2019-02-15T07:00:24.592Z,86
2019-02-15T07:05:52.943Z,86
2019-02-15T07:11:21.503Z,86
2019-02-15T07:16:50.935Z,86
2019-02-15T07:22:18.601Z,87
2019-02-15T07:27:46.180Z,87
2019-02-15T07:33:14.728Z,86
2019-02-15T07:38:43.258Z,86
2019-02-15T07:44:10.788Z,86
2019-02-15T07:49:39.397Z,86
2019-02-15T07:55:07.993Z,86
2019-02-15T08:00:36.638Z,86
2019-02-15T08:06:04.113Z,87
2019-02-15T08:11:32.742Z,87
2019-02-15T08:17:01.432Z,87
2019-02-15T08:22:28.920Z,87
2019-02-15T08:27:56.599Z,87
2019-02-15T08:33:24.166Z,87
2019-02-15T08:38:52.809Z,87
2019-02-15T08:44:21.704Z,87
2019-02-15T08:49:49.028Z,87
2019-02-15T08:55:17.749Z,87
2019-02-15T09:00:46.378Z,87
2019-02-15T09:06:15.004Z,87
2019-02-15T09:11:43.705Z,87
2019-02-15T09:17:12.254Z,87
2019-02-15T09:22:40.888Z,87
2019-02-15T09:28:09.578Z,87
2019-02-15T09:33:37.242Z,87
2019-02-15T09:39:06.731Z,88
2019-02-15T09:44:33.620Z,88
2019-02-15T09:50:01.685Z,88
2019-02-15T09:55:30.010Z,88
2019-02-15T10:00:57.768Z,88
2019-02-15T10:06:29.271Z,88
2019-02-15T10:11:55.199Z,88
2019-02-15T10:17:22.917Z,88
2019-02-15T10:22:51.611Z,88
2019-02-15T10:28:19.369Z,88
2019-02-15T10:33:47.164Z,87
2019-02-15T10:39:15.888Z,87
2019-02-15T10:44:44.732Z,87
2019-02-15T10:50:13.433Z,87
2019-02-15T10:55:41.354Z,87
2019-02-15T11:01:10.111Z,87
2019-02-15T11:06:37.886Z,87
2019-02-15T11:12:07.649Z,87
2019-02-15T11:17:34.569Z,86
2019-02-15T11:23:02.459Z,86
2019-02-15T11:28:36.861Z,86
2019-02-15T11:34:00.324Z,85
2019-02-15T11:39:29.109Z,85
2019-02-15T11:44:58.007Z,85
2019-02-15T11:50:25.970Z,84
2019-02-15T11:55:53.837Z,84
2019-02-15T12:01:22.782Z,84
2019-02-15T12:06:51.758Z,84
2019-02-15T12:12:19.706Z,84
2019-02-15T12:17:47.721Z,84
2019-02-15T12:23:15.711Z,84
2019-02-15T12:28:44.903Z,83
2019-02-15T12:34:12.571Z,83
2019-02-15T12:39:40.702Z,83
2019-02-15T12:45:08.639Z,83
2019-02-15T12:50:36.642Z,83
2019-02-15T12:56:04.813Z,83
2019-02-15T13:01:32.658Z,83
2019-02-15T13:07:01.670Z,83
2019-02-15T13:12:29.676Z,83
2019-02-15T13:17:58.886Z,83
2019-02-15T13:23:26.759Z,83
2019-02-15T13:28:55.945Z,82
2019-02-15T13:34:24.890Z,82
2019-02-15T13:39:53.036Z,82
2019-02-15T13:45:20.993Z,82
2019-02-15T13:50:50.287Z,82
2019-02-15T13:56:19.217Z,81
2019-02-15T14:01:47.348Z,81
2019-02-15T14:07:16.704Z,81
2019-02-15T14:12:45.489Z,81
2019-02-15T14:18:14.655Z,81
2019-02-15T14:23:42.731Z,81
2019-02-15T14:29:10.821Z,81
2019-02-15T14:34:39.912Z,81
2019-02-15T14:40:09.048Z,80
2019-02-15T14:45:37.121Z,80
2019-02-15T14:51:06.786Z,80
2019-02-15T14:56:34.326Z,80
2019-02-15T15:02:03.441Z,80
2019-02-15T15:07:31.562Z,80
2019-02-15T15:13:00.682Z,80
2019-02-15T15:18:28.680Z,80
2019-02-15T15:23:57.802Z,80
2019-02-15T15:29:25.918Z,80
2019-02-15T15:34:54.923Z,79
2019-02-15T15:40:24.020Z,79
2019-02-15T15:45:53.228Z,79
2019-02-15T15:51:22.165Z,79
2019-02-15T15:56:51.215Z,79
2019-02-15T16:02:20.562Z,79
2019-02-15T16:07:48.331Z,79
2019-02-15T16:13:17.248Z,79
2019-02-15T16:18:46.431Z,79
2019-02-15T16:24:15.286Z,79
2019-02-15T16:29:43.289Z,79
2019-02-15T16:35:12.293Z,79
2019-02-15T16:40:43.755Z,79
2019-02-15T16:46:08.367Z,79
2019-02-15T16:51:36.242Z,79
2019-02-15T16:57:04.158Z,79
2019-02-15T17:02:32.078Z,79
2019-02-15T17:08:00.009Z,79
2019-02-15T17:13:28.047Z,79
2019-02-15T17:18:56.847Z,79
2019-02-15T17:24:24.720Z,79
2019-02-15T17:29:52.662Z,79
2019-02-15T17:35:20.574Z,79
2019-02-15T17:40:49.416Z,79
2019-02-15T17:46:18.277Z,79
2019-02-15T17:51:47.227Z,79
2019-02-15T17:57:15.076Z,79
2019-02-15T18:02:42.905Z,79
2019-02-15T18:08:11.841Z,79
2019-02-15T18:13:40.335Z,79
2019-02-15T18:19:10.168Z,79
2019-02-15T18:24:36.329Z,79
2019-02-15T18:30:04.220Z,79
2019-02-15T18:35:32.042Z,79
2019-02-15T18:46:28.703Z,79
2019-02-15T18:51:57.497Z,79
2019-02-15T18:57:25.470Z,79
2019-02-15T19:02:53.090Z,79
2019-02-15T19:08:20.958Z,79
2019-02-15T19:13:49.216Z,79
2019-02-15T19:19:16.573Z,79
2019-02-15T19:24:44.333Z,79
2019-02-15T19:30:13.101Z,79
2019-02-15T19:35:42.037Z,79
2019-02-15T19:41:09.780Z,79
2019-02-15T19:46:37.815Z,79
2019-02-15T19:52:05.307Z,79
2019-02-15T19:57:33.158Z,79
2019-02-15T20:03:01.853Z,79
2019-02-15T20:08:29.758Z,79
2019-02-15T20:14:00.679Z,79
2019-02-15T20:19:26.270Z,79
2019-02-15T20:24:54.019Z,79
2019-02-15T20:30:22.809Z,79
2019-02-15T20:35:51.532Z,79
2019-02-15T20:41:20.399Z,79
2019-02-15T20:46:49.064Z,79
2019-02-15T20:52:16.833Z,79
2019-02-15T20:57:45.611Z,79
2019-02-15T21:03:14.413Z,79
2019-02-15T21:08:42.126Z,79
2019-02-15T21:14:15.177Z,79
2019-02-15T21:19:37.563Z,79
2019-02-15T21:25:06.366Z,79
2019-02-15T21:30:35.052Z,79
2019-02-15T21:36:02.824Z,79
2019-02-15T21:41:30.589Z,79
2019-02-15T21:46:59.318Z,79
2019-02-15T21:52:27.940Z,79
2019-02-15T21:58:01.266Z,79
2019-02-15T22:03:25.413Z,79
2019-02-15T22:08:53.106Z,79
2019-02-15T22:14:21.850Z,79
2019-02-15T22:19:48.499Z,79
2019-02-15T22:25:16.342Z,79
2019-02-15T22:30:44.876Z,79
2019-02-15T22:36:13.625Z,79
2019-02-15T22:41:41.530Z,79
2019-02-15T22:47:10.173Z,79
2019-02-15T22:52:37.708Z,79
2019-02-15T22:58:05.515Z,79
2019-02-15T23:03:34.086Z,79
2019-02-15T23:09:01.897Z,79
2019-02-15T23:14:29.413Z,79
2019-02-15T23:19:57.132Z,79
2019-02-15T23:25:25.863Z,79
2019-02-15T23:30:53.519Z,79
2019-02-15T23:36:21.181Z,79
2019-02-15T23:41:49.849Z,79
2019-02-15T23:47:17.554Z,79
2019-02-15T23:52:46.268Z,79
2019-02-15T23:58:14.897Z,79
